Akron, Michigan
Current Conditions -  °F | °C
As of 1:45 PM on Sunday 23 Nov 2014 (Local Time) from KCFS Reporting Station
Broken Clouds Broken Clouds  
Wind Chill: 50°   Ceiling: 11000
Heat Index: 50°   Visibility: 10mi
Dew Point: 46°   Wind: 7mph
Humidity: 87%   Direction: 150°SSE
Pressure: 29.74"   Gusts: NA
Location:  43.57°N, 83.51°W
Report Text: KCFS 231845Z AUTO 15006KT 10SM SCT029 SCT060 BKN110 10/08 A2974 RMK AO2
Loading
Personal Weather Stations






























Interactive Weather Map New forecast layout! Learn more

10-Day Weather Forecast

Advertisements
Track Severe Weather on mobile